Time;durP1;ratioP1;P1;durP2;ratioP2;P2;SDS_P1;SDS_P2;PMS_P1;PMS_P2;Temp;Humidity;BMP_temperature;BMP_pressure;BME280_temperature;BME280_humidity;BME280_pressure;Samples;Min_cycle;Max_cycle;Signal;HPM_P1;HPM_P2
2024/01/29 00:00:16;;;;;;;16.00;10.00;;;-2.30;99.90;;;;;;5093497;28;20279;-73
2024/01/29 00:02:43;;;;;;;17.07;10.67;;;-2.30;99.90;;;;;;5093378;28;20219;-73
2024/01/29 00:05:10;;;;;;;15.90;10.23;;;-2.40;99.90;;;;;;5093254;28;20196;-74
2024/01/29 00:07:38;;;;;;;21.67;11.73;;;-2.40;99.90;;;;;;5093326;28;20204;-73
2024/01/29 00:10:06;;;;;;;16.97;10.27;;;-2.60;99.90;;;;;;5093492;28;20217;-73
2024/01/29 00:12:32;;;;;;;14.33;10.00;;;-2.50;99.90;;;;;;5093330;28;20197;-73
2024/01/29 00:14:59;;;;;;;15.70;9.73;;;-2.50;99.90;;;;;;5093273;28;20200;-73
2024/01/29 00:17:26;;;;;;;13.83;9.73;;;-2.50;99.90;;;;;;5092646;28;20246;-73
2024/01/29 00:19:52;;;;;;;14.80;9.77;;;-2.50;99.90;;;;;;5093011;28;20203;-73
2024/01/29 00:22:19;;;;;;;15.37;10.03;;;-2.50;99.90;;;;;;5093351;28;20245;-73
2024/01/29 00:24:47;;;;;;;14.20;9.87;;;-2.50;99.90;;;;;;5093261;28;20231;-74
2024/01/29 00:27:14;;;;;;;13.47;9.37;;;-2.50;99.90;;;;;;5093214;28;20303;-73
2024/01/29 00:29:40;;;;;;;13.83;9.23;;;-2.50;99.90;;;;;;5093116;28;20273;-73
2024/01/29 00:32:07;;;;;;;15.53;9.80;;;-2.50;99.90;;;;;;5092857;28;20196;-73
2024/01/29 00:34:34;;;;;;;15.67;9.60;;;-2.50;99.90;;;;;;5093171;28;20200;-73
2024/01/29 00:37:03;;;;;;;15.30;9.07;;;-2.50;99.90;;;;;;5093119;28;20204;-73
2024/01/29 00:39:30;;;;;;;13.50;9.43;;;-2.50;99.90;;;;;;5093025;28;20196;-73
2024/01/29 00:41:58;;;;;;;16.40;10.57;;;-2.50;99.90;;;;;;5093169;28;20200;-73
2024/01/29 00:44:24;;;;;;;18.97;10.47;;;-2.70;99.90;;;;;;5092710;28;20714;-73
2024/01/29 00:46:51;;;;;;;17.60;11.17;;;-2.70;99.90;;;;;;5092798;28;20196;-73
2024/01/29 00:49:17;;;;;;;15.97;10.00;;;-2.70;99.90;;;;;;5092957;28;20196;-73
2024/01/29 00:51:44;;;;;;;14.50;10.03;;;-2.70;99.90;;;;;;5093024;28;20200;-73
2024/01/29 00:54:11;;;;;;;14.23;10.00;;;-2.60;99.90;;;;;;5092870;28;20200;-73
2024/01/29 00:56:37;;;;;;;21.27;10.87;;;-2.60;99.90;;;;;;5092716;28;20207;-73
2024/01/29 00:59:05;;;;;;;17.33;10.77;;;-2.60;99.90;;;;;;5092724;28;20683;-73
2024/01/29 01:01:32;;;;;;;17.13;10.40;;;-2.60;99.90;;;;;;5092965;28;20249;-73
2024/01/29 01:03:58;;;;;;;16.73;10.53;;;-2.60;99.90;;;;;;5092776;28;20629;-73
2024/01/29 01:06:26;;;;;;;14.83;11.03;;;-2.60;99.90;;;;;;5092780;28;20196;-73
2024/01/29 01:08:52;;;;;;;18.70;10.50;;;-2.60;99.90;;;;;;5092724;28;20200;-73
2024/01/29 01:11:19;;;;;;;15.60;11.30;;;-2.60;99.90;;;;;;5092747;28;20307;-73
2024/01/29 01:13:46;;;;;;;17.00;11.00;;;-2.60;99.90;;;;;;5092549;28;20251;-73
2024/01/29 01:16:13;;;;;;;14.70;10.37;;;-2.80;99.90;;;;;;5092786;28;20192;-73
2024/01/29 01:18:40;;;;;;;16.40;10.50;;;-2.80;99.90;;;;;;5092713;28;20254;-73
2024/01/29 01:21:07;;;;;;;14.53;10.20;;;-2.80;99.90;;;;;;5092695;28;20200;-73
2024/01/29 01:23:33;;;;;;;16.33;9.97;;;-2.80;99.90;;;;;;5092514;28;20265;-73
2024/01/29 01:26:00;;;;;;;15.00;9.33;;;-2.90;99.90;;;;;;5092506;28;20204;-73
2024/01/29 01:28:26;;;;;;;16.07;10.73;;;-2.90;99.90;;;;;;5092286;28;20236;-73
2024/01/29 01:30:53;;;;;;;18.97;10.87;;;-2.90;99.90;;;;;;5095145;28;20200;-73
2024/01/29 01:33:21;;;;;;;13.87;10.13;;;-2.90;99.90;;;;;;5096477;28;20208;-73
2024/01/29 01:35:48;;;;;;;15.73;10.63;;;-2.90;99.90;;;;;;5096394;28;20283;-73
2024/01/29 01:38:14;;;;;;;14.57;9.87;;;-3.00;99.90;;;;;;5096142;28;20710;-73
2024/01/29 01:40:41;;;;;;;13.40;9.90;;;-2.90;99.90;;;;;;5096089;28;20200;-73
2024/01/29 01:43:17;;;;;;;13.57;10.17;;;-2.90;99.90;;;;;;5095945;28;20645;-73
2024/01/29 01:45:44;;;;;;;15.90;10.47;;;-2.90;99.90;;;;;;5095989;28;20709;-73
2024/01/29 01:48:12;;;;;;;15.53;10.57;;;-2.90;99.90;;;;;;5096130;28;20192;-73
2024/01/29 01:50:40;;;;;;;14.13;10.17;;;-2.90;99.90;;;;;;5096055;28;20257;-72
2024/01/29 01:53:07;;;;;;;15.67;9.53;;;-2.90;99.90;;;;;;5095927;28;20204;-72
2024/01/29 01:55:34;;;;;;;15.37;9.50;;;-2.90;99.90;;;;;;5095763;28;20242;-72
2024/01/29 01:58:01;;;;;;;13.03;9.73;;;-2.90;99.90;;;;;;5096086;28;20207;-72
2024/01/29 02:00:28;;;;;;;14.20;9.70;;;-2.90;99.90;;;;;;5095903;28;20234;-73
2024/01/29 02:02:55;;;;;;;14.93;9.73;;;-2.90;99.90;;;;;;5095885;28;20261;-73
2024/01/29 02:05:21;;;;;;;16.30;9.87;;;-3.00;99.90;;;;;;5095659;28;20227;-73
2024/01/29 02:07:50;;;;;;;14.03;9.77;;;-3.00;99.90;;;;;;5095542;28;20219;-73
2024/01/29 02:10:17;;;;;;;15.23;11.07;;;-3.00;99.90;;;;;;5095793;28;20215;-72
2024/01/29 02:12:44;;;;;;;17.50;12.17;;;-3.00;99.90;;;;;;5095668;28;20254;-73
2024/01/29 02:15:10;;;;;;;17.43;11.83;;;-3.00;99.90;;;;;;5095524;28;20208;-72
2024/01/29 02:17:37;;;;;;;19.50;11.83;;;-3.00;99.90;;;;;;5095481;28;20226;-72
2024/01/29 02:20:06;;;;;;;16.13;11.00;;;-3.00;99.90;;;;;;5095440;28;20603;-72
2024/01/29 02:22:33;;;;;;;20.13;11.40;;;-3.00;99.90;;;;;;5095234;28;20242;-72
2024/01/29 02:25:01;;;;;;;13.17;10.30;;;-3.00;99.90;;;;;;5095372;28;20236;-72
2024/01/29 02:27:27;;;;;;;18.13;11.33;;;-3.00;99.90;;;;;;5095396;28;20197;-73
2024/01/29 02:29:54;;;;;;;16.50;11.50;;;-3.10;99.90;;;;;;5095324;28;20249;-72
2024/01/29 02:32:21;;;;;;;17.83;11.77;;;-3.10;99.90;;;;;;5095222;28;20196;-73
2024/01/29 02:34:48;;;;;;;14.67;10.47;;;-3.20;99.90;;;;;;5095139;28;20192;-73
2024/01/29 02:37:15;;;;;;;16.70;10.90;;;-3.10;99.90;;;;;;5095027;28;20200;-73
2024/01/29 02:39:41;;;;;;;18.03;10.27;;;-3.10;99.90;;;;;;5095221;28;20200;-73
2024/01/29 02:42:09;;;;;;;15.20;10.00;;;-3.10;99.90;;;;;;5094737;28;20196;-73
2024/01/29 02:44:36;;;;;;;16.53;11.00;;;-3.10;99.90;;;;;;5094954;28;20224;-73
2024/01/29 02:47:03;;;;;;;13.37;10.20;;;-3.10;99.90;;;;;;5094958;28;20594;-73
2024/01/29 02:49:29;;;;;;;15.00;9.77;;;-3.10;99.90;;;;;;5094822;28;20200;-73
2024/01/29 02:51:56;;;;;;;14.80;9.57;;;-3.10;99.90;;;;;;5095062;28;20208;-73
2024/01/29 02:54:22;;;;;;;20.23;10.87;;;-3.10;99.90;;;;;;5094916;28;20192;-73
2024/01/29 02:56:49;;;;;;;16.77;10.53;;;-3.10;99.90;;;;;;5094836;28;20252;-73
2024/01/29 02:59:17;;;;;;;12.73;9.33;;;-3.20;99.90;;;;;;5094626;28;20680;-73
2024/01/29 03:01:43;;;;;;;14.90;9.60;;;-3.20;99.90;;;;;;5094612;28;20250;-73
2024/01/29 03:04:10;;;;;;;16.40;10.50;;;-3.20;99.90;;;;;;5094416;28;20590;-73
2024/01/29 03:06:37;;;;;;;20.03;10.77;;;-3.20;99.90;;;;;;5094691;28;20192;-73
2024/01/29 03:09:04;;;;;;;16.10;10.40;;;-3.30;99.90;;;;;;5094603;28;20257;-73
2024/01/29 03:11:30;;;;;;;17.50;10.50;;;-3.30;99.90;;;;;;5094593;28;20200;-73
2024/01/29 03:13:57;;;;;;;17.83;9.73;;;-3.30;99.90;;;;;;5094662;28;20196;-73
2024/01/29 03:16:25;;;;;;;18.93;11.20;;;-3.30;99.90;;;;;;5094325;28;20200;-73
2024/01/29 03:18:51;;;;;;;21.33;11.20;;;-3.30;99.90;;;;;;5094351;28;20199;-73
2024/01/29 03:21:18;;;;;;;16.70;11.03;;;-3.30;99.90;;;;;;5102853;28;20202;-73
2024/01/29 03:23:45;;;;;;;18.30;11.30;;;-3.30;99.90;;;;;;5094069;28;20650;-73
2024/01/29 03:26:11;;;;;;;21.70;11.30;;;-3.30;99.90;;;;;;5094367;28;20248;-73
2024/01/29 03:28:38;;;;;;;15.50;10.20;;;-3.20;99.90;;;;;;5094120;28;20232;-73
2024/01/29 03:31:05;;;;;;;15.57;10.07;;;-3.10;99.90;;;;;;5093913;28;20578;-73
2024/01/29 03:33:33;;;;;;;18.53;9.77;;;-3.20;99.90;;;;;;5093890;28;20207;-73
2024/01/29 03:36:03;;;;;;;16.50;10.50;;;-3.20;99.90;;;;;;5093836;28;20664;-73
2024/01/29 03:38:30;;;;;;;16.60;9.90;;;-3.20;99.90;;;;;;5094038;28;20196;-72
2024/01/29 03:40:57;;;;;;;14.37;9.73;;;-3.20;99.90;;;;;;5093938;28;20197;-74
2024/01/29 03:43:23;;;;;;;18.80;10.33;;;-3.20;99.90;;;;;;5093753;28;20562;-73
2024/01/29 03:45:50;;;;;;;18.33;10.80;;;-3.20;99.90;;;;;;5093560;28;20231;-73
2024/01/29 03:48:16;;;;;;;12.93;9.13;;;-3.20;99.90;;;;;;5093833;28;20204;-73
2024/01/29 03:50:44;;;;;;;15.60;9.93;;;-3.20;99.90;;;;;;5093635;28;20202;-72
2024/01/29 03:53:11;;;;;;;17.90;10.10;;;-3.10;99.90;;;;;;5092917;28;20196;-73
2024/01/29 03:55:38;;;;;;;17.13;9.47;;;-3.00;99.90;;;;;;5093579;28;20788;-73
2024/01/29 03:58:04;;;;;;;13.03;9.00;;;-3.00;99.90;;;;;;5093662;28;20200;-73
2024/01/29 04:00:31;;;;;;;13.93;8.90;;;-2.80;99.90;;;;;;5093615;28;20312;-73
2024/01/29 04:02:59;;;;;;;15.10;8.60;;;-2.80;99.90;;;;;;5093676;28;20200;-73
2024/01/29 04:05:26;;;;;;;15.13;8.67;;;-2.70;99.90;;;;;;5093413;28;20273;-73
2024/01/29 04:07:54;;;;;;;13.07;8.80;;;-2.70;99.90;;;;;;5093332;28;20201;-73
2024/01/29 04:10:20;;;;;;;15.00;8.53;;;-2.60;99.90;;;;;;5093327;28;20207;-73
2024/01/29 04:12:47;;;;;;;16.57;9.37;;;-2.70;99.90;;;;;;5093462;28;20705;-73
2024/01/29 04:15:14;;;;;;;13.37;8.30;;;-2.70;99.90;;;;;;5093588;28;20204;-73
2024/01/29 04:17:41;;;;;;;16.53;9.50;;;-2.70;99.90;;;;;;5093400;28;20207;-73
2024/01/29 04:20:08;;;;;;;16.43;9.30;;;-2.70;99.90;;;;;;5093274;28;20242;-73
2024/01/29 04:22:35;;;;;;;12.77;9.27;;;-2.70;99.90;;;;;;5093393;28;20196;-73
2024/01/29 04:25:06;;;;;;;17.20;9.20;;;-2.80;99.90;;;;;;5093153;28;20269;-73
2024/01/29 04:27:33;;;;;;;15.03;9.20;;;-2.80;99.90;;;;;;5092931;28;20224;-73
2024/01/29 04:30:00;;;;;;;12.80;8.63;;;-2.90;99.90;;;;;;5093241;28;20234;-73
2024/01/29 04:32:27;;;;;;;15.03;9.20;;;-3.00;99.90;;;;;;5093203;28;20198;-73
2024/01/29 04:34:53;;;;;;;15.00;9.27;;;-3.00;99.90;;;;;;5093142;28;20606;-73
2024/01/29 04:37:20;;;;;;;11.70;8.87;;;-3.10;99.90;;;;;;5092973;28;20229;-73
2024/01/29 04:39:46;;;;;;;12.53;7.93;;;-3.10;99.90;;;;;;5092965;28;20200;-73
2024/01/29 04:42:15;;;;;;;12.20;8.17;;;-3.10;99.90;;;;;;5093289;28;20197;-73
2024/01/29 04:44:41;;;;;;;12.97;8.83;;;-3.10;99.90;;;;;;5092943;28;20224;-74
2024/01/29 04:47:08;;;;;;;15.30;8.97;;;-3.00;99.90;;;;;;5092899;28;20203;-73
2024/01/29 04:49:35;;;;;;;14.30;8.87;;;-3.00;99.90;;;;;;5092743;28;20596;-73
2024/01/29 04:52:01;;;;;;;13.63;9.33;;;-3.10;99.90;;;;;;5092871;28;20193;-73
2024/01/29 04:54:28;;;;;;;14.07;8.70;;;-3.10;99.90;;;;;;5093013;28;20196;-73
2024/01/29 04:56:55;;;;;;;16.33;9.33;;;-3.20;99.90;;;;;;5093056;28;20250;-73
2024/01/29 04:59:22;;;;;;;17.87;11.00;;;-3.30;99.90;;;;;;5092706;28;20598;-73
2024/01/29 05:01:49;;;;;;;16.80;11.27;;;-3.30;99.90;;;;;;5092808;28;20203;-73
2024/01/29 05:04:16;;;;;;;17.70;12.23;;;-3.20;99.90;;;;;;5094259;28;20196;-73
2024/01/29 05:06:42;;;;;;;17.33;12.43;;;-3.30;99.90;;;;;;5096787;28;20196;-73
2024/01/29 05:09:09;;;;;;;16.93;11.93;;;-3.30;99.90;;;;;;5096744;28;20192;-73
2024/01/29 05:11:39;;;;;;;16.83;11.23;;;-3.40;99.90;;;;;;5096945;28;20204;-73
2024/01/29 05:14:06;;;;;;;20.13;12.70;;;-3.30;99.90;;;;;;5096733;28;20659;-73
2024/01/29 05:16:35;;;;;;;19.90;13.23;;;-3.40;99.90;;;;;;5096659;28;20200;-73
2024/01/29 05:19:01;;;;;;;16.80;11.47;;;-3.30;99.90;;;;;;5096517;28;20227;-73
2024/01/29 05:21:28;;;;;;;16.87;10.30;;;-3.30;99.90;;;;;;5096465;28;20204;-73
2024/01/29 05:23:55;;;;;;;15.73;9.77;;;-3.40;99.90;;;;;;5096398;28;20204;-73
2024/01/29 05:26:21;;;;;;;15.90;10.20;;;-3.40;99.90;;;;;;5096567;28;20223;-73
2024/01/29 05:28:48;;;;;;;16.73;11.17;;;-3.30;99.90;;;;;;5096443;28;20263;-73
2024/01/29 05:31:15;;;;;;;14.37;10.03;;;-3.30;99.90;;;;;;5096261;28;20594;-73
2024/01/29 05:33:43;;;;;;;15.77;10.50;;;-3.40;99.90;;;;;;5096381;28;20251;-73
2024/01/29 05:36:09;;;;;;;17.27;11.30;;;-3.40;99.90;;;;;;5096108;28;20207;-73
2024/01/29 05:38:36;;;;;;;18.93;10.77;;;-3.40;99.90;;;;;;5096375;28;20249;-73
2024/01/29 05:41:02;;;;;;;17.17;10.93;;;-3.40;99.90;;;;;;5096327;28;20200;-73
2024/01/29 05:43:29;;;;;;;16.27;10.87;;;-3.40;99.90;;;;;;5096174;28;20249;-73
2024/01/29 05:45:56;;;;;;;20.87;10.80;;;-3.40;99.90;;;;;;5096076;28;20305;-73
2024/01/29 05:48:22;;;;;;;18.27;10.10;;;-3.50;99.90;;;;;;5095973;28;20261;-73
2024/01/29 05:50:50;;;;;;;17.50;10.60;;;-3.50;99.90;;;;;;5095957;28;20195;-73
2024/01/29 05:53:20;;;;;;;17.97;11.20;;;-3.50;99.90;;;;;;5096167;28;20199;-73
2024/01/29 05:55:46;;;;;;;15.80;9.77;;;-3.50;99.90;;;;;;5095926;28;20199;-72
2024/01/29 05:58:14;;;;;;;17.03;10.83;;;-3.50;99.90;;;;;;5096014;28;20197;-74
2024/01/29 06:00:41;;;;;;;17.47;11.17;;;-3.50;99.90;;;;;;5095844;28;20289;-74
2024/01/29 06:03:07;;;;;;;15.47;9.90;;;-3.50;99.90;;;;;;5095705;28;20196;-74
2024/01/29 06:05:34;;;;;;;15.60;10.67;;;-3.60;99.90;;;;;;5095594;28;20906;-73
2024/01/29 06:08:02;;;;;;;15.10;9.70;;;-3.70;99.90;;;;;;5095765;28;20201;-72
2024/01/29 06:10:29;;;;;;;17.37;11.63;;;-3.70;99.90;;;;;;5095761;28;20192;-72
2024/01/29 06:12:56;;;;;;;16.57;11.27;;;-3.70;99.90;;;;;;5095655;28;20200;-73
2024/01/29 06:15:22;;;;;;;19.87;11.80;;;-3.60;99.90;;;;;;5094628;28;20200;-73
2024/01/29 06:17:49;;;;;;;18.27;12.17;;;-3.60;99.90;;;;;;5095363;28;20200;-72
2024/01/29 06:20:16;;;;;;;17.60;12.33;;;-3.60;99.90;;;;;;5095422;28;20724;-72
2024/01/29 06:22:42;;;;;;;16.53;12.17;;;-3.60;99.90;;;;;;5095639;28;20192;-73
2024/01/29 06:25:10;;;;;;;23.73;16.43;;;-3.60;99.90;;;;;;5095346;28;20239;-73
2024/01/29 06:27:37;;;;;;;27.30;17.33;;;-3.60;99.90;;;;;;5095078;28;20196;-73
2024/01/29 06:30:04;;;;;;;30.23;17.60;;;-3.60;99.90;;;;;;5095331;28;20200;-73
2024/01/29 06:32:31;;;;;;;25.43;17.40;;;-3.60;99.90;;;;;;5095307;28;20283;-73
2024/01/29 06:34:58;;;;;;;28.07;18.63;;;-3.60;99.90;;;;;;5095258;28;20207;-73
2024/01/29 06:37:24;;;;;;;27.17;17.93;;;-3.60;99.90;;;;;;5095205;28;20273;-73
2024/01/29 06:39:51;;;;;;;31.23;18.17;;;-3.50;99.90;;;;;;5095008;28;20197;-73
2024/01/29 06:42:19;;;;;;;24.57;16.83;;;-3.50;99.90;;;;;;5095086;28;20283;-73
2024/01/29 06:44:46;;;;;;;24.67;15.33;;;-3.50;99.90;;;;;;5094774;28;20199;-73
2024/01/29 06:47:14;;;;;;;21.83;14.73;;;-3.50;99.90;;;;;;5094513;28;20250;-73
2024/01/29 06:49:41;;;;;;;19.53;14.17;;;-3.50;99.90;;;;;;5094867;28;20195;-73
2024/01/29 06:52:08;;;;;;;21.87;13.67;;;-3.40;99.90;;;;;;5094638;28;20196;-73
2024/01/29 06:54:35;;;;;;;21.57;12.93;;;-3.40;99.90;;;;;;5094823;28;20192;-73
2024/01/29 06:57:00;;;;;;;35.60;16.03;;;-3.40;99.90;;;;;;5094463;28;20204;-72
2024/01/29 06:59:28;;;;;;;32.50;15.90;;;-3.30;99.90;;;;;;5094447;28;20660;-73
2024/01/29 07:01:58;;;;;;;33.50;15.70;;;-3.30;99.90;;;;;;5094551;28;20200;-73
2024/01/29 07:04:25;;;;;;;29.67;14.40;;;-3.30;99.90;;;;;;5094642;28;20200;-73
2024/01/29 07:06:51;;;;;;;29.50;14.73;;;-3.10;99.90;;;;;;5094456;28;20234;-73
2024/01/29 07:09:18;;;;;;;27.10;15.20;;;-3.10;99.90;;;;;;5094542;28;20250;-73
2024/01/29 07:11:45;;;;;;;25.20;14.30;;;-3.10;99.90;;;;;;5094416;28;20303;-73
2024/01/29 07:14:11;;;;;;;21.90;13.60;;;-3.00;99.90;;;;;;5094204;28;20648;-73
2024/01/29 07:16:39;;;;;;;21.40;12.93;;;-2.90;99.90;;;;;;5094520;28;20210;-73
2024/01/29 07:19:06;;;;;;;23.73;13.40;;;-2.90;99.90;;;;;;5094468;28;20196;-73
2024/01/29 07:21:33;;;;;;;22.27;13.10;;;-2.80;99.90;;;;;;5094308;28;20192;-73
2024/01/29 07:23:59;;;;;;;19.97;12.57;;;-2.70;99.90;;;;;;5094061;28;20626;-73
2024/01/29 07:26:26;;;;;;;22.10;13.37;;;-2.60;99.90;;;;;;5093945;28;20250;-73
2024/01/29 07:28:53;;;;;;;18.90;12.07;;;-2.60;99.90;;;;;;5094023;28;20319;-73
2024/01/29 07:31:19;;;;;;;25.67;12.20;;;-2.50;99.90;;;;;;5094276;28;20196;-73
2024/01/29 07:33:47;;;;;;;17.90;11.83;;;-2.30;99.90;;;;;;5094096;28;20200;-73
2024/01/29 07:36:14;;;;;;;19.33;11.47;;;-2.30;99.90;;;;;;5094090;28;20196;-73
2024/01/29 07:38:41;;;;;;;20.60;12.27;;;-2.20;99.90;;;;;;5093948;28;20251;-73
2024/01/29 07:41:07;;;;;;;17.97;11.53;;;-2.10;99.90;;;;;;5093795;28;20287;-73
2024/01/29 07:43:34;;;;;;;16.20;11.50;;;-2.10;99.90;;;;;;5093796;28;20624;-73
2024/01/29 07:46:01;;;;;;;16.60;10.90;;;-2.00;99.90;;;;;;5093624;28;20702;-73
2024/01/29 07:48:28;;;;;;;19.90;11.83;;;-1.90;99.90;;;;;;5093722;28;20226;-73
2024/01/29 07:50:56;;;;;;;15.27;10.90;;;-1.70;99.90;;;;;;5093821;28;20204;-73
2024/01/29 07:53:23;;;;;;;16.23;10.87;;;-1.50;99.90;;;;;;5093570;28;20662;-73
2024/01/29 07:55:50;;;;;;;16.63;10.87;;;-1.50;99.90;;;;;;5093576;28;20249;-74
2024/01/29 07:58:16;;;;;;;14.97;10.07;;;-1.30;99.90;;;;;;5093808;28;20560;-73
2024/01/29 08:00:43;;;;;;;15.70;11.27;;;-1.20;99.90;;;;;;5093483;28;20723;-74
2024/01/29 08:03:10;;;;;;;14.70;10.70;;;-1.10;99.90;;;;;;5093592;28;20205;-73
2024/01/29 08:05:36;;;;;;;14.77;11.17;;;-1.00;99.90;;;;;;5093475;28;20216;-73
2024/01/29 08:08:05;;;;;;;15.40;11.33;;;-0.90;99.90;;;;;;5093405;28;20246;-73
2024/01/29 08:10:35;;;;;;;16.10;11.63;;;-0.80;99.90;;;;;;5093207;28;20253;-74
2024/01/29 08:13:02;;;;;;;19.37;11.13;;;-0.70;99.90;;;;;;5093280;28;20200;-73
2024/01/29 08:15:29;;;;;;;15.23;11.73;;;-0.60;99.90;;;;;;5093134;28;20210;-74
2024/01/29 08:17:56;;;;;;;17.30;11.63;;;-0.60;99.90;;;;;;5093344;28;20562;-74
2024/01/29 08:20:23;;;;;;;17.20;11.77;;;-0.40;99.90;;;;;;5093169;28;20292;-74
2024/01/29 08:22:49;;;;;;;17.37;11.90;;;-0.20;99.90;;;;;;5093032;28;20248;-74
2024/01/29 08:25:18;;;;;;;17.67;11.57;;;-0.10;99.90;;;;;;5093285;28;20596;-74
2024/01/29 08:27:44;;;;;;;15.77;11.23;;;0.10;99.90;;;;;;5092942;28;20605;-74
2024/01/29 08:30:11;;;;;;;16.37;11.87;;;0.20;99.90;;;;;;5093143;28;20257;-74
2024/01/29 08:32:38;;;;;;;17.47;11.70;;;0.30;99.90;;;;;;5093051;28;20204;-74
2024/01/29 08:35:06;;;;;;;16.03;11.93;;;0.50;99.90;;;;;;5092943;28;20283;-73
2024/01/29 08:37:32;;;;;;;16.63;11.23;;;0.60;99.90;;;;;;5093079;28;20651;-73
2024/01/29 08:39:59;;;;;;;17.47;11.77;;;0.80;99.90;;;;;;5092760;28;20253;-74
2024/01/29 08:42:27;;;;;;;15.50;11.40;;;1.00;99.90;;;;;;5093190;28;20192;-74
2024/01/29 08:44:56;;;;;;;17.07;11.07;;;1.20;99.90;;;;;;5099894;28;20200;-74
2024/01/29 08:47:22;;;;;;;14.77;10.53;;;1.40;99.90;;;;;;5092874;28;20230;-75
2024/01/29 08:49:50;;;;;;;14.97;11.23;;;1.60;99.90;;;;;;5093168;28;20200;-74
2024/01/29 08:52:16;;;;;;;15.80;11.50;;;1.80;99.90;;;;;;5092870;28;20651;-73
2024/01/29 08:54:44;;;;;;;14.00;10.77;;;2.00;99.90;;;;;;5092934;28;20197;-74
2024/01/29 08:57:11;;;;;;;15.77;10.93;;;2.20;99.90;;;;;;5092924;28;20661;-75
2024/01/29 08:59:41;;;;;;;14.20;11.33;;;2.50;99.90;;;;;;5093059;28;20198;-75
2024/01/29 09:02:08;;;;;;;13.47;10.37;;;2.70;99.90;;;;;;5092934;28;20219;-75
2024/01/29 09:04:34;;;;;;;19.97;11.40;;;3.00;99.90;;;;;;5092673;28;20205;-74
2024/01/29 09:07:01;;;;;;;13.13;10.40;;;3.20;99.90;;;;;;5092676;28;20242;-75
2024/01/29 09:09:28;;;;;;;15.23;10.03;;;3.50;99.90;;;;;;5092917;28;20199;-75
2024/01/29 09:11:55;;;;;;;12.07;9.30;;;3.70;99.90;;;;;;5092458;28;20644;-74
2024/01/29 09:14:21;;;;;;;12.83;9.50;;;3.90;99.90;;;;;;5092959;28;20595;-74
2024/01/29 09:16:50;;;;;;;12.27;9.50;;;4.10;99.90;;;;;;5092715;28;20196;-74
2024/01/29 09:19:19;;;;;;;10.17;8.80;;;4.30;99.90;;;;;;5092737;28;20196;-74
2024/01/29 09:21:48;;;;;;;11.67;9.33;;;4.60;99.90;;;;;;5093088;28;20287;-74
2024/01/29 09:24:15;;;;;;;11.37;9.00;;;4.80;99.90;;;;;;5092590;28;20648;-74
2024/01/29 09:26:42;;;;;;;12.17;9.53;;;4.90;99.90;;;;;;5092543;28;20220;-74
2024/01/29 09:29:09;;;;;;;10.40;8.90;;;5.20;99.90;;;;;;5092578;28;20225;-74
2024/01/29 09:31:35;;;;;;;10.53;9.17;;;5.30;99.90;;;;;;5092710;28;20201;-75
2024/01/29 09:34:03;;;;;;;12.00;9.07;;;5.50;99.90;;;;;;5093007;28;20246;-74
2024/01/29 09:36:30;;;;;;;11.23;9.40;;;5.70;99.90;;;;;;5092824;28;20279;-73
2024/01/29 09:38:57;;;;;;;11.27;9.77;;;5.80;99.90;;;;;;5092592;28;20201;-74
2024/01/29 09:41:23;;;;;;;10.57;9.47;;;6.00;99.90;;;;;;5092431;28;20199;-74
2024/01/29 09:43:54;;;;;;;10.27;8.90;;;6.20;99.90;;;;;;5092455;28;20250;-75
2024/01/29 09:46:22;;;;;;;10.83;9.37;;;6.50;99.90;;;;;;5092308;28;20220;-74
2024/01/29 09:48:48;;;;;;;11.47;9.50;;;6.80;99.90;;;;;;5092359;28;20598;-73
2024/01/29 09:51:20;;;;;;;11.07;9.98;;;7.00;99.90;;;;;;5093971;28;20203;-74
2024/01/29 09:53:49;;;;;;;10.55;9.30;;;7.20;99.90;;;;;;5096169;28;20197;-74
2024/01/29 09:56:16;;;;;;;11.77;9.63;;;7.50;99.90;;;;;;5095927;28;20262;-75
2024/01/29 09:58:43;;;;;;;11.30;9.93;;;7.70;99.90;;;;;;5095847;28;20192;-74
2024/01/29 10:01:13;;;;;;;12.13;9.63;;;7.90;99.90;;;;;;5096094;28;20559;-74
2024/01/29 10:03:42;;;;;;;9.63;8.73;;;8.10;99.90;;;;;;5096097;28;20200;-74
2024/01/29 10:06:09;;;;;;;10.50;9.50;;;8.50;99.90;;;;;;5095706;28;20224;-74
2024/01/29 10:08:38;;;;;;;10.93;9.77;;;8.50;99.90;;;;;;5095711;28;20250;-74
2024/01/29 10:11:04;;;;;;;10.45;9.52;;;8.80;99.90;;;;;;5095473;28;20253;-74
2024/01/29 10:13:31;;;;;;;10.77;9.60;;;8.80;99.90;;;;;;5095693;28;20211;-75
2024/01/29 10:15:59;;;;;;;10.23;9.20;;;9.10;99.90;;;;;;5095768;28;20238;-75
2024/01/29 10:18:26;;;;;;;11.45;9.93;;;9.20;99.90;;;;;;5095665;28;20258;-75
2024/01/29 10:21:00;;;;;;;10.48;9.30;;;9.40;99.90;;;;;;5095472;28;20227;-75
2024/01/29 10:23:27;;;;;;;12.32;9.30;;;9.70;99.90;;;;;;5095354;28;20223;-75
2024/01/29 10:25:56;;;;;;;17.20;11.80;;;10.00;99.90;;;;;;5095044;28;20200;-75
2024/01/29 10:28:26;;;;;;;10.50;9.45;;;9.90;99.90;;;;;;5095095;28;20228;-75
2024/01/29 10:30:53;;;;;;;10.32;9.40;;;10.10;99.90;;;;;;5095123;28;20689;-75
2024/01/29 10:33:21;;;;;;;12.25;9.98;;;10.40;99.90;;;;;;5095144;28;20196;-75
2024/01/29 10:35:48;;;;;;;11.75;9.88;;;11.00;99.90;;;;;;5095107;28;20192;-75
2024/01/29 10:38:21;;;;;;;14.68;10.02;;;11.70;99.50;;;;;;5094920;28;20684;-75
2024/01/29 10:40:49;;;;;;;12.20;9.75;;;12.70;97.40;;;;;;5095061;28;20559;-75
2024/01/29 10:43:21;;;;;;;12.13;10.65;;;13.80;95.50;;;;;;5094861;28;20678;-75
2024/01/29 10:45:51;;;;;;;10.88;9.48;;;14.90;90.30;;;;;;5094979;28;20196;-74
2024/01/29 10:48:21;;;;;;;12.55;10.27;;;15.30;86.10;;;;;;5094980;28;20216;-75
2024/01/29 10:50:49;;;;;;;11.48;10.27;;;15.60;79.90;;;;;;5095072;28;20201;-75
2024/01/29 10:53:17;;;;;;;11.73;10.52;;;15.70;76.60;;;;;;5094995;28;20205;-74
2024/01/29 10:55:44;;;;;;;10.73;9.73;;;15.80;73.20;;;;;;5094926;28;20287;-74
2024/01/29 10:58:13;;;;;;;10.88;9.68;;;15.80;71.80;;;;;;5094795;28;20352;-74
2024/01/29 11:00:43;;;;;;;11.90;10.63;;;16.20;69.00;;;;;;5094771;28;20200;-75
2024/01/29 11:03:11;;;;;;;12.23;10.48;;;16.10;69.10;;;;;;5094308;28;20201;-75
2024/01/29 11:05:40;;;;;;;11.48;10.43;;;16.90;68.10;;;;;;5094840;28;20200;-74
2024/01/29 11:08:14;;;;;;;12.80;9.60;;;17.40;62.70;;;;;;5094730;28;20662;-74
2024/01/29 11:10:41;;;;;;;10.25;9.27;;;17.60;61.20;;;;;;5094613;28;20272;-74
2024/01/29 11:13:11;;;;;;;10.98;9.82;;;17.40;59.00;;;;;;5094415;28;20234;-75
2024/01/29 11:15:38;;;;;;;10.80;9.70;;;18.10;59.10;;;;;;5094178;28;20673;-76
2024/01/29 11:18:07;;;;;;;10.98;9.88;;;18.90;58.40;;;;;;5094328;28;20200;-75
2024/01/29 11:20:34;;;;;;;11.40;10.25;;;18.90;54.80;;;;;;5094518;28;20254;-75
2024/01/29 11:23:04;;;;;;;12.40;9.93;;;19.10;52.50;;;;;;5094388;28;20197;-75
2024/01/29 11:25:31;;;;;;;11.18;9.75;;;19.00;52.20;;;;;;5094245;28;20249;-75
2024/01/29 11:28:00;;;;;;;10.55;9.45;;;19.40;50.50;;;;;;5094169;28;20365;-76
2024/01/29 11:30:28;;;;;;;14.57;9.65;;;20.20;50.40;;;;;;5094052;28;20200;-76
2024/01/29 11:32:56;;;;;;;10.93;9.82;;;19.50;47.30;;;;;;5094105;28;20212;-76
2024/01/29 11:35:26;;;;;;;10.75;9.73;;;20.30;48.20;;;;;;5094159;28;20253;-75
2024/01/29 11:37:54;;;;;;;10.85;9.75;;;19.50;46.10;;;;;;5094399;28;20241;-75
2024/01/29 11:40:32;;;;;;;10.20;9.30;;;20.10;47.30;;;;;;5094094;28;20196;-77
2024/01/29 11:42:59;;;;;;;9.45;8.55;;;20.70;45.50;;;;;;5094387;28;20253;-75
2024/01/29 11:45:27;;;;;;;12.30;9.45;;;21.10;44.60;;;;;;5094574;28;20287;-76
2024/01/29 11:47:54;;;;;;;14.75;9.82;;;21.60;42.50;;;;;;5094264;28;20281;-76
2024/01/29 11:50:21;;;;;;;11.30;9.32;;;22.10;41.50;;;;;;5094363;28;20196;-76
2024/01/29 11:52:49;;;;;;;13.75;9.07;;;22.30;38.80;;;;;;5094188;28;20253;-76
2024/01/29 11:55:17;;;;;;;11.57;9.27;;;22.40;40.90;;;;;;5093998;28;20721;-76
2024/01/29 11:57:45;;;;;;;11.10;9.93;;;22.20;39.50;;;;;;5093703;28;20671;-76
2024/01/29 12:00:18;;;;;;;10.63;9.50;;;21.60;39.30;;;;;;5094210;28;20197;-76
2024/01/29 12:02:45;;;;;;;10.05;9.07;;;21.90;38.40;;;;;;5094018;28;20202;-76
2024/01/29 12:05:13;;;;;;;10.63;9.38;;;21.00;39.30;;;;;;5093921;28;20225;-76
2024/01/29 12:07:40;;;;;;;10.52;9.52;;;21.30;40.30;;;;;;5093547;28;20646;-75
2024/01/29 12:10:09;;;;;;;11.88;9.60;;;21.30;39.40;;;;;;5093572;28;20652;-75
2024/01/29 12:12:36;;;;;;;10.60;9.50;;;21.20;39.10;;;;;;5093869;28;20197;-75
2024/01/29 12:15:03;;;;;;;12.10;9.27;;;21.60;39.10;;;;;;5092976;28;20292;-75
2024/01/29 12:17:30;;;;;;;10.10;9.13;;;21.90;39.10;;;;;;5093953;28;20196;-76
2024/01/29 12:19:57;;;;;;;10.77;9.68;;;21.80;37.80;;;;;;5099012;28;20192;-75
2024/01/29 12:22:24;;;;;;;10.60;9.70;;;20.40;37.80;;;;;;5093542;28;20201;-76
2024/01/29 12:24:51;;;;;;;12.23;10.70;;;19.70;39.40;;;;;;5093927;28;20273;-75
2024/01/29 12:27:19;;;;;;;11.73;9.85;;;20.70;39.30;;;;;;5093689;28;20254;-76
2024/01/29 12:29:46;;;;;;;10.27;9.27;;;21.10;37.90;;;;;;5093017;28;20703;-75
2024/01/29 12:32:17;;;;;;;9.55;8.65;;;21.30;36.90;;;;;;5093178;28;20192;-76